Time;durP1;ratioP1;P1;durP2;ratioP2;P2;SDS_P1;SDS_P2;PMS_P1;PMS_P2;Temp;Humidity;BMP_temperature;BMP_pressure;BME280_temperature;BME280_humidity;BME280_pressure;Samples;Min_cycle;Max_cycle;Signal;HPM_P1;HPM_P2
2021/08/01 00:00:49;;;;;;;2.30;1.65;;;16.10;92.80;;;;;;5032934;28;20045;-78
2021/08/01 00:03:15;;;;;;;2.20;1.55;;;16.10;92.80;;;;;;5034201;28;20473;-78
2021/08/01 00:05:42;;;;;;;2.08;1.70;;;16.10;92.80;;;;;;5034229;28;20164;-78
2021/08/01 00:08:08;;;;;;;1.85;1.67;;;16.00;92.80;;;;;;5032469;28;20017;-77
2021/08/01 00:10:34;;;;;;;2.00;1.42;;;16.00;92.80;;;;;;5034090;28;20029;-78
2021/08/01 00:12:59;;;;;;;1.98;1.70;;;16.00;92.80;;;;;;5033970;28;20017;-78
2021/08/01 00:15:25;;;;;;;2.58;1.70;;;15.90;92.80;;;;;;5034058;28;20060;-78
2021/08/01 00:17:50;;;;;;;2.10;1.67;;;16.00;92.90;;;;;;5034026;28;20021;-78
2021/08/01 00:20:16;;;;;;;3.20;1.70;;;15.90;92.80;;;;;;5033841;28;20040;-78
2021/08/01 00:22:41;;;;;;;1.98;1.60;;;15.90;92.90;;;;;;5033465;28;20033;-78
2021/08/01 00:25:08;;;;;;;2.15;1.63;;;15.90;92.90;;;;;;5033520;28;20025;-78
2021/08/01 00:27:35;;;;;;;1.80;1.48;;;15.90;92.80;;;;;;5033867;28;20021;-78
2021/08/01 00:30:02;;;;;;;3.47;1.73;;;15.90;92.80;;;;;;5033832;28;20060;-78
2021/08/01 00:32:28;;;;;;;2.45;1.52;;;15.90;92.80;;;;;;5033893;28;20031;-78
2021/08/01 00:34:53;;;;;;;1.83;1.40;;;16.00;92.90;;;;;;5033700;28;20026;-78
2021/08/01 00:37:19;;;;;;;1.88;1.60;;;15.90;92.80;;;;;;5033280;28;20030;-78
2021/08/01 00:39:44;;;;;;;2.47;1.40;;;15.90;92.80;;;;;;5033363;28;20040;-78
2021/08/01 00:42:10;;;;;;;2.25;1.58;;;15.80;92.80;;;;;;5033386;28;20029;-78
2021/08/01 00:44:36;;;;;;;1.90;1.20;;;15.80;92.80;;;;;;5032288;28;20022;-78
2021/08/01 00:47:01;;;;;;;1.88;1.20;;;15.80;92.80;;;;;;5033589;28;20065;-78
2021/08/01 00:49:27;;;;;;;2.53;1.50;;;15.80;93.00;;;;;;5033412;28;20037;-78
2021/08/01 00:51:55;;;;;;;2.17;1.30;;;15.70;92.70;;;;;;5032966;28;20021;-78
2021/08/01 00:54:22;;;;;;;2.10;1.40;;;15.70;92.70;;;;;;5044031;28;20080;-78
2021/08/01 00:56:48;;;;;;;2.10;1.55;;;15.70;92.80;;;;;;5053322;28;20475;-78
2021/08/01 00:59:14;;;;;;;1.95;1.20;;;15.70;92.80;;;;;;5053287;28;20555;-78
2021/08/01 01:01:49;;;;;;;2.20;1.50;;;15.60;92.70;;;;;;5035319;28;20060;-78
2021/08/01 01:04:47;;;;;;;2.15;1.38;;;15.60;92.70;;;;;;5053152;28;20025;-78
2021/08/01 01:07:44;;;;;;;1.80;1.30;;;15.60;92.70;;;;;;5052662;28;20025;-77
2021/08/01 01:10:18;;;;;;;2.15;1.50;;;15.60;92.70;;;;;;5029694;28;20172;-78
2021/08/01 01:12:53;;;;;;;1.50;1.30;;;15.50;92.80;;;;;;5053138;28;20358;-77
2021/08/01 01:15:30;;;;;;;1.95;1.70;;;15.50;92.80;;;;;;5052938;28;20082;-78
2021/08/01 01:17:59;;;;;;;1.85;1.45;;;15.50;92.70;;;;;;5052946;28;20025;-77
2021/08/01 01:20:59;;;;;;;2.30;1.73;;;15.50;93.10;;;;;;5052648;28;20040;-77
2021/08/01 01:23:44;;;;;;;2.20;1.52;;;15.40;92.80;;;;;;5053075;28;20064;-77
2021/08/01 01:26:19;;;;;;;2.08;1.63;;;15.40;92.80;;;;;;5053331;28;20028;-77
2021/08/01 01:28:47;;;;;;;1.48;1.38;;;15.30;92.90;;;;;;5053091;28;20111;-77
2021/08/01 01:31:16;;;;;;;1.63;1.23;;;15.30;92.90;;;;;;5052754;28;20021;-77
2021/08/01 01:33:59;;;;;;;1.90;1.30;;;15.30;92.90;;;;;;5052930;28;20029;-77
2021/08/01 01:36:29;;;;;;;2.20;1.63;;;15.30;92.80;;;;;;5052384;28;20075;-77
2021/08/01 01:38:57;;;;;;;1.50;1.27;;;15.30;92.80;;;;;;5053061;28;20490;-77
2021/08/01 01:41:25;;;;;;;2.03;1.48;;;15.20;92.80;;;;;;5052668;28;20508;-77
2021/08/01 01:43:52;;;;;;;2.65;1.50;;;15.20;92.80;;;;;;5052865;28;20101;-77
2021/08/01 01:46:19;;;;;;;2.55;1.50;;;15.20;92.80;;;;;;5052817;28;20083;-77
2021/08/01 01:48:45;;;;;;;1.98;1.38;;;15.20;92.90;;;;;;5052957;28;20719;-77
2021/08/01 01:51:12;;;;;;;1.88;1.23;;;15.20;92.90;;;;;;5052175;28;20024;-77
2021/08/01 01:53:38;;;;;;;1.23;1.13;;;15.20;92.90;;;;;;5054918;28;20132;-77
2021/08/01 01:56:07;;;;;;;1.63;1.30;;;15.20;92.90;;;;;;5056786;28;20122;-77
2021/08/01 01:58:34;;;;;;;2.13;1.60;;;15.20;92.80;;;;;;5056482;28;20021;-77
2021/08/01 02:01:00;;;;;;;2.03;1.77;;;15.10;92.80;;;;;;5056335;28;20579;-78
2021/08/01 02:03:26;;;;;;;1.80;1.42;;;15.10;92.80;;;;;;5056032;28;20029;-77
2021/08/01 02:05:53;;;;;;;2.58;1.58;;;15.10;92.80;;;;;;5056441;28;20083;-78
2021/08/01 02:08:18;;;;;;;3.00;1.70;;;15.10;92.80;;;;;;5056481;28;20351;-77
2021/08/01 02:10:49;;;;;;;3.08;2.00;;;15.10;92.80;;;;;;5056239;28;20532;-78
2021/08/01 02:13:18;;;;;;;3.10;2.42;;;15.10;92.80;;;;;;5056336;28;20017;-77
2021/08/01 02:15:51;;;;;;;2.70;1.67;;;15.00;92.80;;;;;;5055955;28;20021;-78
2021/08/01 02:18:35;;;;;;;2.28;1.50;;;15.00;92.90;;;;;;5055735;28;20073;-78
2021/08/01 02:21:01;;;;;;;3.05;1.90;;;15.00;92.90;;;;;;5038085;28;20509;-77
2021/08/01 02:23:38;;;;;;;2.80;2.30;;;15.00;92.90;;;;;;5056060;28;20059;-78
2021/08/01 02:26:05;;;;;;;2.20;1.58;;;15.00;92.90;;;;;;5055856;28;20036;-77
2021/08/01 02:28:34;;;;;;;2.90;1.63;;;14.90;93.00;;;;;;5055938;28;20108;-77
2021/08/01 02:31:02;;;;;;;2.67;1.88;;;14.90;93.00;;;;;;5056040;28;20025;-77
2021/08/01 02:33:28;;;;;;;3.90;2.03;;;14.90;93.00;;;;;;5055411;28;20429;-77
2021/08/01 02:35:57;;;;;;;2.08;1.45;;;14.90;93.00;;;;;;5055784;28;20025;-77
2021/08/01 02:38:24;;;;;;;;;;;14.90;93.00;;;;;;5056273;28;20028;-77
2021/08/01 02:40:52;;;;;;;1.90;1.60;;;14.80;92.90;;;;;;5055522;28;19921;-78
2021/08/01 02:43:21;;;;;;;2.88;1.80;;;14.90;93.00;;;;;;5055658;28;20107;-77
2021/08/01 02:45:48;;;;;;;2.15;1.50;;;14.90;93.00;;;;;;5055569;28;20100;-77
2021/08/01 02:48:15;;;;;;;1.95;1.60;;;14.90;92.90;;;;;;5037211;28;20434;-77
2021/08/01 02:50:45;;;;;;;2.05;1.85;;;15.00;92.90;;;;;;5055484;28;20469;-77
2021/08/01 02:53:14;;;;;;;2.05;1.60;;;15.10;92.80;;;;;;5055340;28;20098;-77
2021/08/01 02:55:47;;;;;;;3.13;1.70;;;15.10;92.80;;;;;;5055458;28;20110;-78
2021/08/01 02:58:13;;;;;;;2.17;1.70;;;15.10;92.70;;;;;;5055463;28;20033;-77
2021/08/01 03:00:41;;;;;;;2.15;1.65;;;15.20;92.80;;;;;;5055206;28;20504;-77
2021/08/01 03:03:07;;;;;;;2.72;1.50;;;15.20;92.70;;;;;;5054846;28;20195;-77
2021/08/01 03:05:34;;;;;;;2.72;1.60;;;15.30;92.70;;;;;;5037490;28;20134;-77
2021/08/01 03:08:00;;;;;;;2.78;1.75;;;15.30;92.70;;;;;;5055194;28;20071;-77
2021/08/01 03:10:25;;;;;;;3.15;2.05;;;15.30;92.70;;;;;;5055204;28;20412;-77
2021/08/01 03:12:51;;;;;;;3.85;2.38;;;15.30;92.70;;;;;;5055174;28;20052;-77
2021/08/01 03:15:17;;;;;;;2.35;1.70;;;15.40;92.70;;;;;;5055071;28;20056;-77
2021/08/01 03:17:43;;;;;;;2.80;1.90;;;15.40;92.70;;;;;;5036782;28;20024;-77
2021/08/01 03:20:09;;;;;;;2.65;1.52;;;15.40;92.60;;;;;;5054854;28;20090;-77
2021/08/01 03:22:35;;;;;;;2.53;1.83;;;15.50;92.70;;;;;;5054968;28;20025;-77
2021/08/01 03:25:02;;;;;;;2.60;2.05;;;15.50;92.60;;;;;;5054893;28;20432;-77
2021/08/01 03:27:28;;;;;;;2.90;2.10;;;15.50;92.60;;;;;;5055001;28;20044;-77
2021/08/01 03:29:53;;;;;;;1.90;1.55;;;15.50;92.60;;;;;;5054737;28;20355;-77
2021/08/01 03:32:20;;;;;;;1.40;1.23;;;15.50;92.60;;;;;;5036630;28;20405;-77
2021/08/01 03:34:46;;;;;;;2.05;1.60;;;15.50;92.60;;;;;;5054582;28;20051;-77
2021/08/01 03:37:11;;;;;;;3.28;1.48;;;15.60;92.70;;;;;;5054743;28;20021;-78
2021/08/01 03:39:37;;;;;;;2.78;1.92;;;15.60;92.70;;;;;;5054577;28;20029;-78
2021/08/01 03:42:03;;;;;;;3.58;2.20;;;15.60;92.70;;;;;;5054508;28;20021;-77
2021/08/01 03:44:29;;;;;;;3.25;1.70;;;15.60;92.70;;;;;;5054425;28;20370;-77
2021/08/01 03:46:55;;;;;;;3.42;2.20;;;15.60;92.70;;;;;;5054063;28;20031;-77
2021/08/01 03:49:20;;;;;;;2.58;1.55;;;15.60;92.70;;;;;;5036523;28;20055;-78
2021/08/01 03:51:46;;;;;;;5.00;2.00;;;15.60;92.70;;;;;;5054272;28;20056;-78
2021/08/01 03:54:11;;;;;;;2.38;2.00;;;15.60;92.70;;;;;;5054076;28;20072;-78
2021/08/01 03:56:43;;;;;;;2.88;1.92;;;15.70;92.70;;;;;;5054375;28;20104;-78
2021/08/01 03:59:09;;;;;;;2.78;1.65;;;15.70;92.70;;;;;;5054217;28;20075;-78
2021/08/01 04:01:35;;;;;;;2.50;1.77;;;15.70;92.70;;;;;;5053594;28;20032;-78
2021/08/01 04:04:00;;;;;;;2.38;1.70;;;15.70;92.70;;;;;;5054148;28;20123;-77
2021/08/01 04:06:26;;;;;;;2.70;1.80;;;15.70;92.70;;;;;;5054221;28;20092;-78
2021/08/01 04:08:51;;;;;;;2.55;1.80;;;15.70;92.70;;;;;;5054587;28;20154;-78
2021/08/01 04:11:17;;;;;;;2.22;1.65;;;15.80;92.70;;;;;;5054016;28;20072;-78
2021/08/01 04:13:42;;;;;;;3.00;1.70;;;15.80;92.70;;;;;;5054047;28;20517;-77
2021/08/01 04:16:08;;;;;;;2.58;1.80;;;15.80;92.70;;;;;;5053110;28;20024;-77
2021/08/01 04:18:34;;;;;;;3.25;2.35;;;15.80;92.60;;;;;;5053968;28;20029;-78
2021/08/01 04:20:59;;;;;;;2.10;1.55;;;15.80;92.60;;;;;;5053748;28;20033;-77
2021/08/01 04:23:25;;;;;;;2.33;2.00;;;15.80;92.60;;;;;;5053730;28;20466;-77
2021/08/01 04:25:51;;;;;;;2.55;1.55;;;15.80;92.60;;;;;;5035966;28;20029;-77
2021/08/01 04:28:16;;;;;;;2.15;1.70;;;15.80;92.70;;;;;;5053858;28;20017;-78
2021/08/01 04:30:42;;;;;;;2.15;1.70;;;15.90;92.70;;;;;;5053356;28;20374;-77
2021/08/01 04:33:07;;;;;;;2.58;2.00;;;15.90;92.70;;;;;;5053552;28;20025;-77
2021/08/01 04:35:33;;;;;;;2.15;1.70;;;15.90;92.70;;;;;;5053750;28;20017;-77
2021/08/01 04:38:01;;;;;;;2.45;1.70;;;15.90;92.70;;;;;;5053817;28;20382;-77
2021/08/01 04:40:27;;;;;;;1.77;1.52;;;15.90;92.70;;;;;;5053635;28;20033;-77
2021/08/01 04:42:52;;;;;;;2.40;1.75;;;15.90;92.70;;;;;;5052940;28;20156;-77
2021/08/01 04:45:18;;;;;;;2.35;1.63;;;16.00;92.70;;;;;;5053584;28;20036;-77
2021/08/01 04:47:43;;;;;;;2.83;1.95;;;16.00;92.60;;;;;;5053360;28;20021;-77
2021/08/01 04:50:09;;;;;;;2.25;1.55;;;16.00;92.60;;;;;;5053616;28;20071;-77
2021/08/01 04:52:35;;;;;;;2.25;2.03;;;16.10;92.60;;;;;;5053719;28;20434;-77
2021/08/01 04:55:00;;;;;;;1.75;1.50;;;16.00;92.60;;;;;;5052578;28;20106;-77
2021/08/01 04:57:26;;;;;;;3.95;1.55;;;16.10;92.60;;;;;;5052038;28;20425;-77
2021/08/01 04:59:51;;;;;;;2.03;1.40;;;16.00;92.60;;;;;;5052542;28;20079;-77
2021/08/01 05:02:17;;;;;;;2.53;1.52;;;16.10;92.60;;;;;;5052342;28;20018;-76
2021/08/01 05:04:42;;;;;;;1.30;1.20;;;16.10;92.60;;;;;;5052360;28;20425;-77
2021/08/01 05:07:08;;;;;;;1.98;1.50;;;16.10;92.60;;;;;;5052342;28;20021;-76
2021/08/01 05:09:33;;;;;;;2.30;1.70;;;16.20;92.60;;;;;;5052340;28;20382;-77
2021/08/01 05:11:58;;;;;;;2.30;1.30;;;16.20;92.60;;;;;;5051858;28;20030;-76
2021/08/01 05:14:24;;;;;;;2.40;1.50;;;16.10;92.60;;;;;;5052221;28;20032;-76
2021/08/01 05:16:49;;;;;;;2.45;1.90;;;16.20;92.60;;;;;;5052157;28;20017;-76
2021/08/01 05:19:15;;;;;;;4.15;1.80;;;16.20;92.60;;;;;;5052022;28;20474;-76
2021/08/01 05:21:41;;;;;;;2.05;1.63;;;16.20;92.60;;;;;;5052355;28;20025;-76
2021/08/01 05:24:07;;;;;;;2.58;1.65;;;16.20;92.60;;;;;;5052063;28;20035;-77
2021/08/01 05:26:32;;;;;;;2.03;1.40;;;16.20;92.60;;;;;;5033780;28;20021;-77
2021/08/01 05:28:58;;;;;;;2.65;1.80;;;16.20;92.70;;;;;;5054771;28;20025;-77
2021/08/01 05:31:23;;;;;;;3.35;1.98;;;16.20;92.60;;;;;;5055633;28;20087;-76
2021/08/01 05:33:49;;;;;;;2.05;1.50;;;16.30;92.60;;;;;;5055679;28;20079;-77
2021/08/01 05:36:14;;;;;;;3.10;2.25;;;16.30;92.60;;;;;;5055534;28;20553;-77
2021/08/01 05:38:40;;;;;;;3.13;2.00;;;16.30;92.60;;;;;;5037759;28;20028;-77
2021/08/01 05:41:06;;;;;;;4.00;2.30;;;16.30;92.60;;;;;;5054959;28;20037;-77
2021/08/01 05:43:32;;;;;;;3.70;2.10;;;16.20;92.60;;;;;;5055538;28;20085;-77
2021/08/01 05:45:57;;;;;;;3.25;2.50;;;16.30;92.60;;;;;;5037711;28;20029;-77
2021/08/01 05:48:23;;;;;;;3.00;2.20;;;16.30;92.60;;;;;;5055357;28;20043;-78
2021/08/01 05:50:49;;;;;;;3.20;2.42;;;16.30;92.60;;;;;;5055287;28;20029;-77
2021/08/01 05:53:17;;;;;;;3.83;2.30;;;16.40;92.60;;;;;;5019815;28;1010782;-77
2021/08/01 05:55:43;;;;;;;3.65;2.35;;;16.40;92.60;;;;;;5056306;28;20059;-77
2021/08/01 05:58:08;;;;;;;3.47;1.95;;;16.40;92.60;;;;;;5056561;28;20448;-77
2021/08/01 06:00:34;;;;;;;2.50;1.80;;;16.40;92.60;;;;;;5056284;28;20041;-77
2021/08/01 06:02:59;;;;;;;4.57;2.05;;;16.40;92.60;;;;;;5056523;28;20017;-77
2021/08/01 06:05:25;;;;;;;3.40;2.42;;;16.50;92.60;;;;;;5056319;28;20421;-77
2021/08/01 06:07:50;;;;;;;4.70;2.45;;;16.50;92.60;;;;;;5056368;28;20025;-77
2021/08/01 06:10:16;;;;;;;5.10;2.60;;;16.50;92.50;;;;;;5037947;28;20036;-77
2021/08/01 06:12:41;;;;;;;3.70;2.60;;;16.50;92.50;;;;;;5056334;28;20017;-77
2021/08/01 06:15:07;;;;;;;3.85;2.40;;;16.50;92.60;;;;;;5038358;28;20021;-78
2021/08/01 06:17:34;;;;;;;5.45;3.00;;;16.50;92.60;;;;;;5056115;28;20029;-78
2021/08/01 06:19:59;;;;;;;5.13;2.72;;;16.50;92.50;;;;;;5056047;28;20108;-78
2021/08/01 06:22:25;;;;;;;5.10;3.17;;;16.50;92.60;;;;;;5056231;28;20113;-76
2021/08/01 06:24:51;;;;;;;5.07;3.00;;;16.40;92.60;;;;;;5055592;28;20025;-77
2021/08/01 06:27:17;;;;;;;5.30;2.40;;;16.50;93.00;;;;;;5038004;28;20473;-77
2021/08/01 06:29:43;;;;;;;4.22;2.42;;;16.50;92.70;;;;;;5055885;28;20071;-77
2021/08/01 06:32:09;;;;;;;4.10;2.50;;;16.50;92.70;;;;;;5055891;28;20029;-77
2021/08/01 06:34:35;;;;;;;4.60;2.60;;;16.60;92.60;;;;;;5056035;28;20099;-78
2021/08/01 06:37:01;;;;;;;4.72;2.85;;;16.60;92.60;;;;;;5055885;28;20033;-79
2021/08/01 06:39:26;;;;;;;4.88;3.25;;;16.60;92.60;;;;;;5054834;28;20021;-78
2021/08/01 06:41:52;;;;;;;4.90;3.22;;;16.60;92.60;;;;;;5037871;28;20068;-78
2021/08/01 06:44:17;;;;;;;3.90;2.58;;;16.60;92.60;;;;;;5055574;28;20036;-77
2021/08/01 06:46:43;;;;;;;4.53;2.83;;;16.60;92.60;;;;;;5055370;28;20075;-78
2021/08/01 06:49:08;;;;;;;3.97;3.08;;;16.60;92.60;;;;;;5055746;28;20017;-78
2021/08/01 06:51:34;;;;;;;4.43;2.90;;;16.60;92.60;;;;;;5055604;28;20044;-79
2021/08/01 06:53:59;;;;;;;4.18;2.63;;;16.60;92.60;;;;;;5054915;28;20043;-78
2021/08/01 06:56:25;;;;;;;4.53;3.00;;;16.60;92.70;;;;;;5055353;28;20025;-78
2021/08/01 06:58:50;;;;;;;4.05;2.30;;;16.70;92.60;;;;;;5037568;28;20029;-78
2021/08/01 07:01:16;;;;;;;5.20;2.33;;;16.70;92.60;;;;;;5055365;28;20036;-78
2021/08/01 07:03:42;;;;;;;3.58;2.38;;;16.70;92.60;;;;;;5055463;28;20021;-78
2021/08/01 07:06:10;;;;;;;3.13;2.22;;;16.70;92.60;;;;;;5055205;28;20021;-79
2021/08/01 07:08:36;;;;;;;5.15;2.35;;;16.80;92.60;;;;;;5054624;28;20009;-78
2021/08/01 07:11:02;;;;;;;4.32;2.50;;;16.80;92.50;;;;;;5055115;28;20417;-78
2021/08/01 07:13:27;;;;;;;4.60;2.47;;;16.80;92.50;;;;;;5055261;28;20106;-78
2021/08/01 07:15:53;;;;;;;3.55;2.10;;;16.70;92.50;;;;;;5055211;28;20025;-78
2021/08/01 07:18:18;;;;;;;3.05;2.40;;;16.70;92.60;;;;;;5054862;28;20095;-78
2021/08/01 07:20:44;;;;;;;3.55;2.42;;;16.60;92.60;;;;;;5055090;28;20116;-78
2021/08/01 07:23:10;;;;;;;4.30;2.55;;;16.60;92.70;;;;;;5054576;28;20021;-78
2021/08/01 07:25:36;;;;;;;4.55;2.92;;;16.60;92.60;;;;;;5054892;28;20075;-78
2021/08/01 07:28:04;;;;;;;3.78;2.63;;;16.60;92.60;;;;;;5054647;28;20013;-78
2021/08/01 07:30:30;;;;;;;4.07;2.60;;;16.60;92.70;;;;;;5054838;28;20470;-78
2021/08/01 07:32:55;;;;;;;4.43;2.20;;;16.60;92.70;;;;;;5054782;28;20101;-78
2021/08/01 07:35:21;;;;;;;3.53;2.28;;;16.60;92.60;;;;;;5054809;28;20608;-78
2021/08/01 07:37:47;;;;;;;3.13;1.85;;;16.60;92.60;;;;;;5054208;28;20474;-78
2021/08/01 07:40:12;;;;;;;4.25;2.78;;;16.60;92.70;;;;;;5054541;28;20029;-78
2021/08/01 07:42:38;;;;;;;3.30;2.00;;;16.60;92.70;;;;;;5054604;28;20379;-78
2021/08/01 07:45:05;;;;;;;3.50;2.45;;;16.60;92.60;;;;;;5036868;28;20020;-78
2021/08/01 07:47:34;;;;;;;3.47;2.17;;;16.60;92.60;;;;;;5054449;28;20031;-77
2021/08/01 07:50:00;;;;;;;4.85;2.45;;;16.60;92.60;;;;;;5053946;28;20051;-77
2021/08/01 07:52:26;;;;;;;3.33;2.00;;;16.60;92.60;;;;;;5053756;28;20028;-78
2021/08/01 07:54:52;;;;;;;2.72;1.90;;;16.70;92.60;;;;;;5054136;28;20053;-78
2021/08/01 07:57:37;;;;;;;3.65;2.33;;;16.70;92.60;;;;;;5054254;28;20033;-78
2021/08/01 08:00:04;;;;;;;3.65;1.90;;;16.70;92.50;;;;;;5054337;28;20506;-78
2021/08/01 08:02:29;;;;;;;2.75;1.83;;;16.70;92.60;;;;;;5054225;28;20021;-78
2021/08/01 08:04:55;;;;;;;3.45;2.05;;;16.70;92.60;;;;;;5036200;28;20021;-79
2021/08/01 08:07:20;;;;;;;4.35;2.50;;;16.80;92.50;;;;;;5053615;28;20043;-79
2021/08/01 08:09:46;;;;;;;3.97;2.85;;;16.70;92.50;;;;;;5054038;28;20017;-78
2021/08/01 08:12:12;;;;;;;3.90;2.53;;;16.70;92.60;;;;;;5054038;28;20059;-79
2021/08/01 08:14:38;;;;;;;5.45;2.72;;;16.80;92.60;;;;;;5054099;28;20028;-79
2021/08/01 08:17:04;;;;;;;5.47;2.75;;;16.80;92.60;;;;;;5054019;28;20024;-78
2021/08/01 08:19:30;;;;;;;3.85;2.42;;;16.80;92.60;;;;;;5053683;28;20170;-78
2021/08/01 08:21:56;;;;;;;5.10;2.13;;;16.90;92.60;;;;;;5053459;28;20078;-78
2021/08/01 08:24:22;;;;;;;4.25;2.60;;;16.90;92.50;;;;;;5053825;28;20028;-78
2021/08/01 08:26:48;;;;;;;3.67;1.92;;;17.00;92.50;;;;;;5053693;28;20025;-79
2021/08/01 08:29:15;;;;;;;2.97;2.05;;;16.90;92.50;;;;;;5053680;28;20074;-78
2021/08/01 08:31:40;;;;;;;3.90;2.13;;;17.00;92.50;;;;;;5053836;28;20071;-78
2021/08/01 08:34:06;;;;;;;4.35;2.70;;;17.00;92.50;;;;;;5053662;28;20021;-79
2021/08/01 08:36:31;;;;;;;2.38;1.83;;;17.10;92.40;;;;;;5053300;28;20151;-78
2021/08/01 08:38:57;;;;;;;4.85;2.22;;;17.20;92.40;;;;;;5053587;28;20025;-78
2021/08/01 08:41:25;;;;;;;4.82;2.33;;;17.20;92.30;;;;;;5053363;28;20037;-77
2021/08/01 08:43:51;;;;;;;4.37;3.03;;;17.20;92.30;;;;;;5053523;28;20029;-78
2021/08/01 08:46:19;;;;;;;4.32;2.65;;;17.20;92.30;;;;;;5053596;28;20032;-78
2021/08/01 08:48:45;;;;;;;4.63;3.00;;;17.20;92.30;;;;;;5053635;28;20053;-79
2021/08/01 08:51:11;;;;;;;5.10;2.80;;;17.20;92.40;;;;;;5052964;28;20061;-79
2021/08/01 08:53:47;;;;;;;4.15;2.35;;;17.20;92.40;;;;;;5034932;28;20044;-78
2021/08/01 08:56:14;;;;;;;4.22;2.33;;;17.20;92.40;;;;;;5053259;28;20492;-79
2021/08/01 08:58:40;;;;;;;4.55;2.25;;;17.30;92.40;;;;;;5053286;28;20032;-79
2021/08/01 09:01:06;;;;;;;4.75;2.50;;;17.40;92.40;;;;;;5053205;28;20037;-79
2021/08/01 09:03:33;;;;;;;5.65;2.83;;;17.40;92.40;;;;;;5053013;28;20512;-78
2021/08/01 09:05:59;;;;;;;4.70;2.40;;;17.50;92.30;;;;;;5052602;28;20032;-79
2021/08/01 09:08:26;;;;;;;5.03;2.88;;;17.60;92.30;;;;;;5053122;28;20017;-78
2021/08/01 09:10:53;;;;;;;4.78;2.80;;;17.70;92.20;;;;;;5053251;28;20021;-78
2021/08/01 09:13:53;;;;;;;3.17;2.22;;;17.70;92.20;;;;;;5035125;28;20052;-79
2021/08/01 09:16:21;;;;;;;2.83;1.73;;;17.80;92.10;;;;;;5035161;28;20425;-79
2021/08/01 09:18:48;;;;;;;3.83;1.90;;;17.80;92.20;;;;;;5052501;28;20442;-78
2021/08/01 09:21:32;;;;;;;4.10;1.88;;;17.80;92.20;;;;;;5052859;28;20033;-78
2021/08/01 09:23:58;;;;;;;4.25;2.03;;;17.80;92.20;;;;;;5052961;28;20025;-79
2021/08/01 09:26:24;;;;;;;5.20;2.80;;;17.90;92.20;;;;;;5052847;28;20450;-78
2021/08/01 09:29:02;;;;;;;4.72;3.00;;;17.90;92.10;;;;;;5052891;28;20053;-79
2021/08/01 09:31:28;;;;;;;3.63;1.98;;;17.90;92.10;;;;;;5035074;28;20125;-79
2021/08/01 09:33:54;;;;;;;5.43;2.90;;;17.90;92.20;;;;;;5052441;28;20057;-79
2021/08/01 09:36:25;;;;;;;4.50;2.50;;;18.00;92.10;;;;;;5052916;28;20029;-79
2021/08/01 09:38:59;;;;;;;5.03;2.22;;;18.00;92.10;;;;;;5034999;28;20071;-79
2021/08/01 09:41:36;;;;;;;4.05;2.53;;;18.20;92.10;;;;;;5034689;28;20474;-79
2021/08/01 09:44:04;;;;;;;4.05;2.33;;;18.30;92.00;;;;;;5052820;28;20028;-79
2021/08/01 09:46:39;;;;;;;5.75;2.92;;;18.50;92.00;;;;;;5052678;28;20026;-79
2021/08/01 09:49:10;;;;;;;5.97;2.58;;;18.80;91.80;;;;;;5052420;28;20033;-79
2021/08/01 09:51:43;;;;;;;6.40;3.15;;;19.10;91.60;;;;;;5052833;28;20017;-79
2021/08/01 09:54:13;;;;;;;3.30;2.38;;;19.30;91.40;;;;;;5052359;28;20049;-79
2021/08/01 09:56:50;;;;;;;4.82;2.65;;;19.40;91.40;;;;;;5052592;28;20029;-80
2021/08/01 09:59:21;;;;;;;4.63;2.42;;;19.50;91.30;;;;;;5034816;28;20185;-80
2021/08/01 10:01:49;;;;;;;5.03;2.25;;;19.50;91.30;;;;;;5052578;28;20033;-79
2021/08/01 10:04:23;;;;;;;4.60;3.08;;;19.50;91.30;;;;;;5052922;28;20025;-79
2021/08/01 10:07:11;;;;;;;2.95;1.90;;;19.50;91.40;;;;;;5052778;28;20033;-79
2021/08/01 10:09:39;;;;;;;2.87;1.80;;;19.70;91.40;;;;;;5052574;28;20025;-80
2021/08/01 10:12:06;;;;;;;5.30;2.88;;;19.90;91.40;;;;;;5052508;28;20641;-79
2021/08/01 10:14:32;;;;;;;6.47;2.65;;;20.00;91.20;;;;;;5054233;28;20031;-79
2021/08/01 10:16:58;;;;;;;5.32;3.63;;;20.10;91.20;;;;;;5055732;28;20025;-79
2021/08/01 10:19:24;;;;;;;4.53;2.05;;;20.10;91.10;;;;;;5055999;28;20499;-79
2021/08/01 10:21:52;;;;;;;4.05;2.30;;;20.10;91.20;;;;;;5056065;28;20033;-79
2021/08/01 10:24:24;;;;;;;4.72;2.88;;;20.10;91.20;;;;;;5056194;28;20021;-79
2021/08/01 10:26:52;;;;;;;4.65;2.60;;;20.20;91.20;;;;;;5056092;28;20112;-79
2021/08/01 10:29:25;;;;;;;3.33;2.50;;;20.20;91.20;;;;;;5055735;28;20469;-79
2021/08/01 10:31:58;;;;;;;4.68;2.60;;;20.20;91.30;;;;;;5055520;28;20035;-79
2021/08/01 10:34:27;;;;;;;3.15;1.70;;;20.30;91.30;;;;;;5038069;28;20445;-79
2021/08/01 10:36:56;;;;;;;4.90;2.50;;;20.20;91.30;;;;;;5055825;28;20028;-79
2021/08/01 10:39:26;;;;;;;3.55;2.08;;;20.10;91.40;;;;;;5055678;28;20021;-79
2021/08/01 10:41:53;;;;;;;4.40;2.42;;;20.00;91.50;;;;;;5055719;28;20405;-79
2021/08/01 10:44:19;;;;;;;3.83;2.35;;;19.80;91.60;;;;;;5055781;28;20021;-80
2021/08/01 10:46:46;;;;;;;3.47;1.80;;;19.70;91.70;;;;;;5055279;28;20432;-78
2021/08/01 10:49:12;;;;;;;4.53;2.38;;;19.60;92.10;;;;;;5055538;28;20021;-76
2021/08/01 10:51:38;;;;;;;3.22;2.25;;;19.40;91.90;;;;;;5037675;28;20017;-76
2021/08/01 10:54:19;;;;;;;3.20;1.70;;;19.00;92.20;;;;;;5055316;28;20541;-75
2021/08/01 10:56:45;;;;;;;3.03;1.90;;;18.70;92.60;;;;;;5055355;28;20462;-75
2021/08/01 10:59:45;;;;;;;3.70;2.05;;;18.40;92.90;;;;;;5055443;28;20025;-75
2021/08/01 11:02:14;;;;;;;;;;;18.10;93.10;;;;;;5055292;28;20482;-74
2021/08/01 11:04:43;;;;;;;3.17;1.80;;;17.90;93.40;;;;;;5055238;28;19905;-74
2021/08/01 11:07:08;;;;;;;2.63;1.33;;;17.80;93.50;;;;;;5055187;28;20066;-74
2021/08/01 11:09:34;;;;;;;3.40;2.03;;;17.80;93.40;;;;;;5037308;28;20037;-74
2021/08/01 11:12:33;;;;;;;2.58;1.70;;;17.80;93.30;;;;;;5055225;28;20420;-74
2021/08/01 11:15:01;;;;;;;1.90;0.90;;;17.70;93.20;;;;;;5054644;28;20473;-74
2021/08/01 11:17:48;;;;;;;2.00;1.20;;;17.60;93.40;;;;;;5054901;28;20028;-74
2021/08/01 11:20:20;;;;;;;2.00;1.23;;;17.70;93.30;;;;;;5055151;28;20028;-74
2021/08/01 11:22:45;;;;;;;1.73;0.90;;;17.70;93.20;;;;;;5054951;28;20035;-74
2021/08/01 11:25:46;;;;;;;1.45;0.90;;;17.70;93.10;;;;;;5053774;28;20096;-74
2021/08/01 11:28:15;;;;;;;1.15;0.90;;;17.70;93.00;;;;;;5041154;28;20033;-74
2021/08/01 11:30:49;;;;;;;2.73;1.13;;;17.70;93.20;;;;;;5054321;28;20032;-74
2021/08/01 11:33:32;;;;;;;1.50;1.10;;;17.90;93.10;;;;;;5054761;28;20267;-74
2021/08/01 11:36:12;;;;;;;1.17;1.08;;;18.30;92.90;;;;;;5054574;28;20541;-75
2021/08/01 11:38:48;;;;;;;1.33;0.90;;;18.60;92.50;;;;;;5036819;28;20112;-75
2021/08/01 11:41:35;;;;;;;0.93;0.90;;;18.70;92.50;;;;;;5054598;28;20037;-75
2021/08/01 11:44:22;;;;;;;1.52;1.02;;;18.80;92.40;;;;;;5036255;28;20582;-75
2021/08/01 11:47:03;;;;;;;1.92;1.33;;;18.70;92.50;;;;;;5054487;28;20021;-75
2021/08/01 11:49:29;;;;;;;1.95;1.15;;;18.60;92.60;;;;;;5054536;28;20351;-76
2021/08/01 11:51:56;;;;;;;2.60;1.85;;;18.40;92.80;;;;;;5054443;28;20025;-75
2021/08/01 11:54:36;;;;;;;1.40;0.93;;;18.30;93.00;;;;;;5054121;28;20422;-75
2021/08/01 11:57:07;;;;;;;1.25;1.10;;;18.30;93.00;;;;;;5036235;28;20439;-75
2021/08/01 11:59:33;;;;;;;2.67;1.27;;;18.40;93.00;;;;;;5035941;28;20021;-75
2021/08/01 12:02:00;;;;;;;2.90;1.42;;;18.40;93.00;;;;;;5054329;28;20028;-75
2021/08/01 12:04:26;;;;;;;1.75;1.13;;;18.40;92.90;;;;;;5036313;28;20025;-75
2021/08/01 12:06:54;;;;;;;1.45;0.98;;;18.30;93.00;;;;;;5053900;28;20474;-75
2021/08/01 12:09:29;;;;;;;1.20;1.10;;;18.30;93.00;;;;;;5053992;28;20044;-75
2021/08/01 12:11:57;;;;;;;1.25;0.90;;;18.40;93.00;;;;;;5053958;28;20071;-76
2021/08/01 12:14:41;;;;;;;2.30;1.10;;;18.40;93.00;;;;;;5053689;28;20032;-75
2021/08/01 12:17:09;;;;;;;2.03;1.27;;;18.30;92.90;;;;;;5053754;28;20428;-75
2021/08/01 12:19:45;;;;;;;1.70;1.08;;;18.20;92.90;;;;;;5053827;28;20028;-75
2021/08/01 12:22:22;;;;;;;0.90;0.77;;;18.10;93.00;;;;;;5053939;28;20021;-75
2021/08/01 12:24:50;;;;;;;1.77;0.93;;;18.20;93.00;;;;;;5053804;28;20473;-75
2021/08/01 12:27:22;;;;;;;2.10;1.25;;;18.10;93.00;;;;;;5035329;28;20021;-76
2021/08/01 12:29:50;;;;;;;1.58;1.08;;;18.00;93.00;;;;;;5053592;28;20384;-75
2021/08/01 12:32:26;;;;;;;1.77;1.20;;;18.00;93.20;;;;;;5035662;28;20420;-74
2021/08/01 12:35:17;;;;;;;1.20;0.80;;;18.10;93.00;;;;;;5053766;28;20393;-76
2021/08/01 12:37:57;;;;;;;1.73;1.20;;;18.20;93.00;;;;;;5053371;28;20025;-76
2021/08/01 12:40:40;;;;;;;2.03;0.80;;;18.40;92.90;;;;;;5053591;28;20045;-75
2021/08/01 12:43:10;;;;;;;1.02;0.93;;;18.40;92.80;;;;;;5052968;28;20474;-77
2021/08/01 12:45:46;;;;;;;1.45;1.10;;;18.50;92.80;;;;;;5053304;28;20029;-75
2021/08/01 12:48:19;;;;;;;1.20;0.85;;;18.40;92.80;;;;;;5035520;28;20025;-76
2021/08/01 12:50:48;;;;;;;0.98;0.70;;;18.50;92.80;;;;;;5053235;28;20036;-75
2021/08/01 12:53:14;;;;;;;0.85;0.68;;;18.40;92.70;;;;;;5052930;28;20021;-75
2021/08/01 12:55:41;;;;;;;0.73;0.50;;;18.40;92.80;;;;;;5035447;28;20090;-75